CKQ8 weather

McArthur River Airport
Mcarthur River, Saskatchewan, Canada

Public forecast

Using degrees Celsius for public forecast. Weather courtesy of forecast.io.

METAR (pilot weather report)

Closest report is Key Lake Airport, 36.2 nm (67.0 km) SSW. Retrieved 2019/05/21 10:00 UTC (37 minutes ago):

CYKJ 211000Z AUTO 23003KT 9SM CLR 06/00 A3002 RMK SLP190

TAF (pilot weather forecast)

Closest forecast is Key Lake Airport, 36.2 nm (67.0 km) SSW. Retrieved 2019/05/21 10:42 UTC (0 seconds ago):

TAF TAF CYKJ 210939Z 2110/2122 21005KT P6SM SKC BECMG 2112/2114 24008KT BECMG 2119/2121 30008KT RMK FCST BASED ON AUTO OBS. NXT FCST BY 211300Z